Time;durP1;ratioP1;P1;durP2;ratioP2;P2;SDS_P1;SDS_P2;PMS_P1;PMS_P2;Temp;Humidity;BMP_temperature;BMP_pressure;BME280_temperature;BME280_humidity;BME280_pressure;Samples;Min_cycle;Max_cycle;Signal;HPM_P1;HPM_P2
2021/01/25 04:33:50;;;;;;;15.60;9.20;;;;;;;4.97;58.24;97066.78;6757375;29;20237;-81
2021/01/25 04:37:11;;;;;;;14.83;8.80;;;;;;;4.76;58.42;97043.03;6768975;29;20202;-77
2021/01/25 04:40:32;;;;;;;7.33;6.57;;;;;;;4.63;58.92;97031.59;6767937;29;20237;-77
2021/01/25 04:43:54;;;;;;;9.43;6.73;;;;;;;4.80;59.59;97080.81;6792714;29;20217;-78
2021/01/25 04:47:16;;;;;;;7.63;5.87;;;;;;;4.29;60.16;97032.72;6792462;29;20666;-78
2021/01/25 04:50:38;;;;;;;8.57;6.93;;;;;;;4.82;60.07;97094.75;6792366;29;20230;-77
2021/01/25 04:54:00;;;;;;;8.93;6.70;;;;;;;4.82;60.32;97095.59;6791694;29;20266;-77
2021/01/25 04:57:21;;;;;;;8.47;6.60;;;;;;;5.30;59.08;97082.66;6791912;29;20220;-77
2021/01/25 05:00:43;;;;;;;11.60;7.00;;;;;;;4.77;58.86;96985.16;6790352;29;20244;-78
2021/01/25 05:04:04;;;;;;;13.60;8.97;;;;;;;5.42;58.35;97092.44;6790082;29;20229;-77
2021/01/25 05:07:26;;;;;;;8.67;7.07;;;;;;;5.02;58.74;97074.97;6789261;29;20208;-77
2021/01/25 05:10:47;;;;;;;10.43;7.17;;;;;;;4.96;58.84;97075.00;6787759;29;20235;-78
2021/01/25 05:14:08;;;;;;;9.23;7.53;;;;;;;4.59;60.43;97052.56;6788801;29;20232;-79
2021/01/25 05:17:33;;;;;;;11.80;8.20;;;;;;;4.67;60.23;97067.53;6788052;29;20216;-77
2021/01/25 05:20:55;;;;;;;8.03;7.23;;;;;;;4.40;60.35;97004.59;6786587;29;20697;-77
2021/01/25 05:24:17;;;;;;;7.77;6.97;;;;;;;4.91;60.24;97088.16;6786669;29;20208;-79
2021/01/25 05:27:41;;;;;;;10.97;7.33;;;;;;;4.37;59.89;96999.69;6786500;29;20216;-77
2021/01/25 05:31:03;;;;;;;9.03;7.67;;;;;;;4.94;59.87;97093.91;6785848;29;20953;-78
2021/01/25 05:34:24;;;;;;;11.27;7.07;;;;;;;4.89;60.05;97104.38;6792574;29;20235;-79
2021/01/25 05:37:51;;;;;;;8.37;6.97;;;;;;;4.03;60.77;96976.81;6794707;29;20211;-77
2021/01/25 05:41:15;;;;;;;8.63;7.70;;;;;;;4.93;60.01;97107.47;6792998;29;20224;-78
2021/01/25 05:44:37;;;;;;;9.87;8.60;;;;;;;5.28;59.98;97098.06;6793909;29;20225;-78
2021/01/25 05:47:59;;;;;;;11.97;8.97;;;;;;;5.39;59.16;97092.88;6789406;29;20212;-78
2021/01/25 05:51:20;;;;;;;8.50;7.50;;;;;;;5.24;58.57;97092.31;6784198;29;20240;-78
2021/01/25 05:54:42;;;;;;;9.90;8.03;;;;;;;4.67;59.98;97108.34;6785339;29;20714;-77
2021/01/25 05:58:05;;;;;;;12.80;9.17;;;;;;;4.63;60.28;97107.16;6785433;29;20213;-77
2021/01/25 06:01:27;;;;;;;12.13;9.13;;;;;;;4.13;60.76;97013.69;6786057;29;20223;-78
2021/01/25 06:04:48;;;;;;;9.23;8.13;;;;;;;4.63;60.21;97064.44;6788546;29;20224;-77
2021/01/25 06:08:20;;;;;;;10.37;8.83;;;;;;;4.94;60.17;97109.09;6788877;29;20220;-78
2021/01/25 06:11:45;;;;;;;12.20;8.70;;;;;;;4.44;59.66;96995.97;6790563;29;20287;-78
2021/01/25 06:15:11;;;;;;;9.73;8.07;;;;;;;5.14;60.04;97110.66;6791411;29;20237;-78
2021/01/25 06:18:33;;;;;;;10.77;8.83;;;;;;;5.13;60.28;97122.38;6792508;29;20214;-78
2021/01/25 06:21:54;;;;;;;14.03;9.13;;;;;;;5.33;59.58;97122.28;6791616;29;20232;-78
2021/01/25 06:25:16;;;;;;;12.40;9.43;;;;;;;4.54;59.86;97036.34;6792448;29;20225;-78
2021/01/25 06:28:37;;;;;;;11.33;9.87;;;;;;;5.20;60.50;97125.81;6792068;29;20591;-77
2021/01/25 06:32:00;;;;;;;11.70;9.43;;;;;;;5.54;59.36;97105.94;6792624;29;20247;-78
2021/01/25 06:35:21;;;;;;;11.60;9.23;;;;;;;5.28;59.51;97109.56;6794055;29;20236;-79
2021/01/25 06:38:43;;;;;;;13.37;10.23;;;;;;;5.22;58.51;97032.13;6794047;29;20690;-78
2021/01/25 06:42:05;;;;;;;12.00;9.40;;;;;;;5.81;58.08;97126.97;6794536;29;20239;-77
2021/01/25 06:45:26;;;;;;;14.10;10.23;;;;;;;5.19;58.43;97069.97;6800111;29;20216;-77
2021/01/25 06:48:49;;;;;;;10.87;9.50;;;;;;;5.79;57.81;97131.66;6798028;29;20245;-78
2021/01/25 06:52:11;;;;;;;12.13;9.97;;;;;;;4.90;57.80;97051.81;6797674;29;20235;-77
2021/01/25 06:55:33;;;;;;;15.97;10.20;;;;;;;5.19;58.45;97126.06;6797185;29;20240;-78
2021/01/25 06:58:54;;;;;;;14.70;11.33;;;;;;;5.28;58.99;97163.00;6799278;29;20216;-79
2021/01/25 07:02:19;;;;;;;14.13;10.90;;;;;;;5.14;58.39;97078.59;6799508;29;20234;-78
2021/01/25 07:05:43;;;;;;;14.03;10.90;;;;;;;5.01;58.78;97056.50;6800619;29;20277;-77
2021/01/25 07:09:07;;;;;;;14.40;11.83;;;;;;;5.05;58.60;97082.56;6799911;29;20214;-78
2021/01/25 07:12:29;;;;;;;14.37;11.40;;;;;;;5.73;58.79;97171.84;6799193;29;20221;-78
2021/01/25 07:15:51;;;;;;;20.90;12.40;;;;;;;4.87;58.71;97087.78;6799779;29;20221;-78
2021/01/25 07:19:12;;;;;;;16.20;11.80;;;;;;;4.57;59.45;97072.47;6799858;29;20204;-77
2021/01/25 07:22:36;;;;;;;15.70;11.70;;;;;;;5.41;59.95;97195.00;6798430;29;20236;-79
2021/01/25 07:25:58;;;;;;;17.43;12.27;;;;;;;5.34;59.64;97169.34;6800097;29;20203;-78
2021/01/25 07:29:20;;;;;;;16.90;12.23;;;;;;;4.87;59.38;97098.44;6800263;29;20303;-78
2021/01/25 07:32:41;;;;;;;16.17;12.37;;;;;;;5.66;59.69;97198.59;6797979;29;20412;-77
2021/01/25 07:36:03;;;;;;;21.70;12.63;;;;;;;5.17;59.19;97094.22;6800170;29;20277;-78
2021/01/25 07:39:25;;;;;;;16.07;11.33;;;;;;;5.98;58.84;97216.34;6800802;29;20212;-78
2021/01/25 07:42:46;;;;;;;12.87;10.70;;;;;;;6.43;57.17;97215.19;6798113;29;20241;-78
2021/01/25 07:46:09;;;;;;;9.30;8.37;;;;;;;5.92;56.14;97120.09;6798753;29;20209;-78
2021/01/25 07:49:30;;;;;;;11.93;9.60;;;;;;;5.89;56.72;97156.13;6798059;29;20224;-77
2021/01/25 07:52:58;;;;;;;9.50;8.43;;;;;;;6.10;55.65;97146.94;6796840;29;20342;-78
2021/01/25 07:56:23;;;;;;;11.10;8.30;;;;;;;5.97;55.54;97121.13;6798150;29;20220;-78
2021/01/25 07:59:46;;;;;;;12.87;8.83;;;;;;;6.33;56.31;97200.69;6797471;29;20217;-78
2021/01/25 08:03:10;;;;;;;12.27;9.23;;;;;;;6.85;55.95;97232.38;6797777;29;20229;-78
2021/01/25 08:06:32;;;;;;;12.50;9.30;;;;;;;6.30;55.58;97241.28;6796703;29;20250;-78
2021/01/25 08:09:55;;;;;;;15.43;10.27;;;;;;;6.04;57.54;97242.25;6797013;29;20220;-78
2021/01/25 08:13:17;;;;;;;11.20;9.60;;;;;;;6.50;57.12;97253.47;6796760;29;20505;-78
2021/01/25 08:16:40;;;;;;;13.70;9.10;;;;;;;6.17;56.47;97145.84;6797509;29;20285;-78
2021/01/25 08:20:08;;;;;;;12.83;9.07;;;;;;;7.09;55.46;97236.88;6796591;29;20373;-79
2021/01/25 08:23:34;;;;;;;10.07;8.60;;;;;;;6.48;54.79;97169.06;6796244;29;20248;-78
2021/01/25 08:27:05;;;;;;;9.97;8.73;;;;;;;6.37;55.24;97154.53;6796312;29;20194;-78
2021/01/25 08:30:35;;;;;;;11.03;8.30;;;;;;;6.50;54.24;97159.78;6794472;29;20224;-78
2021/01/25 08:33:59;;;;;;;14.60;10.23;;;;;;;6.29;56.24;97240.44;6795124;29;20244;-78
2021/01/25 08:37:26;;;;;;;13.23;10.10;;;;;;;6.09;56.56;97202.31;6794387;29;20211;-77
2021/01/25 08:40:47;;;;;;;15.23;10.57;;;;;;;5.72;56.86;97178.22;6792954;29;20223;-78
2021/01/25 08:44:12;;;;;;;14.97;11.37;;;;;;;5.45;57.79;97141.97;6794555;29;20205;-78
2021/01/25 08:47:34;;;;;;;15.60;12.80;;;;;;;6.27;57.46;97282.66;6794026;29;20582;-78
2021/01/25 08:51:07;;;;;;;15.10;12.77;;;;;;;6.22;57.92;97246.84;6793066;29;20232;-78
2021/01/25 08:54:31;;;;;;;14.00;11.57;;;;;;;5.79;57.94;97201.19;6793749;29;20243;-79
2021/01/25 08:57:53;;;;;;;15.23;11.77;;;;;;;6.28;57.77;97267.41;6794647;29;20212;-78
2021/01/25 09:01:16;;;;;;;14.23;11.00;;;;;;;5.78;58.37;97217.47;6793430;29;20307;-78
2021/01/25 09:04:38;;;;;;;15.07;11.37;;;;;;;5.67;59.09;97221.59;6793098;29;20236;-78
2021/01/25 09:08:01;;;;;;;17.07;12.00;;;;;;;5.87;58.94;97254.47;6792311;29;20213;-78
2021/01/25 09:11:22;;;;;;;19.33;13.33;;;;;;;5.94;59.18;97199.09;6790198;29;20255;-78
2021/01/25 09:14:44;;;;;;;17.07;12.30;;;;;;;6.31;57.62;97224.97;6792323;29;20246;-79
2021/01/25 09:18:07;;;;;;;13.93;10.90;;;;;;;6.54;57.20;97211.03;6791267;29;20212;-78
2021/01/25 09:21:29;;;;;;;12.43;10.93;;;;;;;7.30;56.55;97320.38;6790367;29;20225;-78
2021/01/25 09:24:52;;;;;;;13.77;11.63;;;;;;;7.47;55.88;97325.97;6790059;29;20210;-79
2021/01/25 09:28:14;;;;;;;14.07;11.43;;;;;;;7.55;55.62;97329.19;6789877;29;20221;-78
2021/01/25 09:31:35;;;;;;;14.90;12.00;;;;;;;6.49;56.19;97235.75;6787804;29;20250;-78
2021/01/25 09:34:57;;;;;;;15.73;12.33;;;;;;;6.53;56.93;97255.69;6790229;29;20241;-78
2021/01/25 09:38:18;;;;;;;17.63;14.20;;;;;;;6.31;57.43;97250.94;6792087;29;20299;-79
2021/01/25 09:41:41;;;;;;;16.30;12.40;;;;;;;7.19;56.88;97329.13;6790026;29;20704;-79
2021/01/25 09:45:04;;;;;;;16.93;13.13;;;;;;;7.45;56.64;97353.03;6781926;29;20237;-79
2021/01/25 09:48:25;;;;;;;21.93;13.93;;;;;;;7.54;55.92;97359.72;6789633;29;20225;-78
2021/01/25 09:51:47;;;;;;;14.07;12.50;;;;;;;6.98;56.45;97329.53;6788438;29;20244;-78
2021/01/25 09:55:09;;;;;;;18.37;13.07;;;;;;;6.46;57.58;97294.25;6789048;29;20643;-79
2021/01/25 09:58:32;;;;;;;17.47;13.47;;;;;;;6.26;58.13;97274.84;6789156;29;20206;-78
2021/01/25 10:01:53;;;;;;;18.23;14.27;;;;;;;6.41;58.59;97283.38;6780871;29;20239;-79
2021/01/25 10:05:15;;;;;;;19.53;14.47;;;;;;;7.17;57.75;97390.16;6764781;29;20262;-78
2021/01/25 10:08:37;;;;;;;19.40;15.23;;;;;;;6.36;57.95;97283.22;6760534;29;20214;-78
2021/01/25 10:11:58;;;;;;;23.03;15.70;;;;;;;6.89;58.56;97314.75;6759261;29;20783;-79
2021/01/25 10:15:20;;;;;;;18.13;14.67;;;;;;;7.08;57.20;97291.53;6760709;29;20238;-78
2021/01/25 10:18:41;;;;;;;16.10;14.40;;;;;;;8.00;56.51;97402.19;6758873;29;20245;-79
2021/01/25 10:22:03;;;;;;;15.73;14.07;;;;;;;8.26;54.86;97410.78;6772353;29;20237;-80
2021/01/25 10:25:24;;;;;;;18.13;15.57;;;;;;;7.83;53.96;97294.63;6806640;29;20214;-80
2021/01/25 10:28:46;;;;;;;20.40;14.83;;;;;;;7.63;53.58;97288.69;6806417;29;20221;-81
2021/01/25 10:32:08;;;;;;;22.17;16.57;;;;;;;7.43;54.00;97287.25;6803942;29;20234;-80
2021/01/25 10:35:29;;;;;;;18.67;15.03;;;;;;;8.24;53.74;97407.50;6805260;29;20233;-79
2021/01/25 10:38:50;;;;;;;21.10;14.90;;;;;;;7.61;54.04;97330.19;6804619;29;20218;-80
2021/01/25 10:42:12;;;;;;;23.10;15.97;;;;;;;7.22;55.80;97330.53;6794102;29;20281;-78
2021/01/25 10:45:33;;;;;;;19.80;16.13;;;;;;;7.90;55.76;97432.22;6789630;29;20234;-78
2021/01/25 10:48:55;;;;;;;19.17;16.00;;;;;;;8.00;54.96;97432.53;6789411;29;20210;-79
2021/01/25 10:52:17;;;;;;;22.67;17.33;;;;;;;7.54;56.03;97423.28;6788335;29;20231;-78
2021/01/25 10:55:38;;;;;;;18.80;15.47;;;;;;;7.33;56.87;97365.50;6788105;29;20233;-78
2021/01/25 10:58:59;;;;;;;18.10;15.40;;;;;;;8.44;55.58;97445.69;6785748;29;20222;-79
2021/01/25 11:02:20;;;;;;;17.90;15.27;;;;;;;8.20;54.13;97433.16;6785208;29;20251;-78
2021/01/25 11:05:42;;;;;;;20.20;15.23;;;;;;;7.80;55.13;97362.16;6785014;29;20215;-78
2021/01/25 11:09:04;;;;;;;17.23;14.93;;;;;;;8.31;54.81;97448.53;6793464;29;20228;-81
2021/01/25 11:12:26;;;;;;;18.57;15.50;;;;;;;7.99;55.38;97420.16;6792122;29;20296;-79
2021/01/25 11:15:47;;;;;;;18.30;15.80;;;;;;;8.03;55.87;97453.56;6786860;29;20293;-79
2021/01/25 11:19:09;;;;;;;14.87;11.33;;;;;;;7.57;56.70;97401.38;6787878;29;20215;-79
2021/01/25 11:22:31;;;;;;;15.47;12.50;;;;;;;7.97;56.00;97464.34;6787126;29;20234;-79
2021/01/25 11:25:52;;;;;;;15.53;11.80;;;;;;;7.81;55.84;97422.81;6786042;29;20219;-79
2021/01/25 11:29:15;;;;;;;12.40;10.60;;;;;;;7.29;56.26;97353.56;6790271;29;20221;-79
2021/01/25 11:32:36;;;;;;;12.80;10.40;;;;;;;8.21;55.41;97479.63;6795671;29;20285;-79
2021/01/25 11:35:57;;;;;;;12.77;10.87;;;;;;;7.92;55.82;97456.97;6797613;29;20232;-79
2021/01/25 11:39:19;;;;;;;14.10;10.97;;;;;;;8.08;55.97;97466.31;6798669;29;20676;-78
2021/01/25 11:42:41;;;;;;;11.17;10.03;;;;;;;8.49;53.82;97475.38;6796299;29;20231;-80
2021/01/25 11:46:02;;;;;;;13.27;11.10;;;;;;;8.21;55.31;97479.63;6798331;29;20207;-79
2021/01/25 11:49:23;;;;;;;12.20;10.97;;;;;;;8.32;55.41;97484.28;6798501;29;20613;-80
2021/01/25 11:52:47;;;;;;;11.97;10.67;;;;;;;8.45;53.96;97463.47;6796467;29;20242;-79
2021/01/25 11:56:09;;;;;;;13.43;12.00;;;;;;;7.58;55.21;97409.22;6797297;29;20235;-79
2021/01/25 11:59:30;;;;;;;13.80;12.27;;;;;;;8.38;56.17;97486.06;6797277;29;20217;-79
2021/01/25 12:02:52;;;;;;;13.33;11.93;;;;;;;7.47;56.26;97425.19;6797548;29;20222;-79
2021/01/25 12:06:15;;;;;;;13.67;10.50;;;;;;;7.54;56.75;97425.97;6799200;29;20225;-79
2021/01/25 12:09:39;;;;;;;13.23;11.83;;;;;;;7.63;56.36;97463.03;6799503;29;20211;-79
2021/01/25 12:13:01;;;;;;;14.13;10.23;;;;;;;8.57;55.49;97421.38;6798253;29;20234;-79
2021/01/25 12:16:22;;;;;;;10.27;9.27;;;;;;;8.75;53.41;97407.91;6796020;29;20211;-80
2021/01/25 12:19:43;;;;;;;14.57;11.43;;;;;;;9.77;49.89;97494.50;6796644;29;20211;-79
2021/01/25 12:23:04;;;;;;;10.43;9.43;;;;;;;9.30;52.63;97473.91;6798719;29;20231;-81
2021/01/25 12:26:25;;;;;;;12.07;9.37;;;;;;;9.26;51.57;97416.25;6799734;29;20218;-79
2021/01/25 12:29:47;;;;;;;11.77;9.40;;;;;;;9.35;52.94;97492.88;6798549;29;20211;-79
2021/01/25 12:33:09;;;;;;;16.73;10.50;;;;;;;9.62;51.90;97512.97;6798149;29;20242;-80
2021/01/25 12:36:32;;;;;;;16.57;11.53;;;;;;;9.60;53.19;97515.88;6798985;29;20214;-79
2021/01/25 12:39:53;;;;;;;9.40;6.10;;;;;;;9.13;52.50;97397.63;6796436;29;20219;-79
2021/01/25 12:43:14;;;;;;;6.10;5.60;;;;;;;9.27;54.03;97506.66;6796918;29;20231;-79
2021/01/25 12:46:36;;;;;;;9.27;6.50;;;;;;;9.21;53.72;97499.50;6797007;29;20230;-79
2021/01/25 12:49:57;;;;;;;9.50;5.83;;;;;;;8.95;53.79;97478.31;6795921;29;20218;-79
2021/01/25 12:53:19;;;;;;;7.07;5.33;;;;;;;9.38;51.81;97436.75;6792398;29;20241;-77
2021/01/25 12:56:40;;;;;;;4.10;3.70;;;;;;;7.89;53.51;97339.34;6793729;29;20215;-79
2021/01/25 13:00:01;;;;;;;5.07;4.50;;;;;;;9.68;52.73;97510.16;6793873;29;20271;-78
2021/01/25 13:03:23;;;;;;;4.37;3.40;;;;;;;8.78;53.71;97490.75;6793678;29;20238;-79
2021/01/25 13:06:44;;;;;;;3.97;2.70;;;;;;;8.73;52.66;97420.72;6794372;29;20215;-79
2021/01/25 13:10:07;;;;;;;3.03;2.80;;;;;;;8.85;52.62;97416.22;6791817;29;20239;-79
2021/01/25 13:13:28;;;;;;;3.10;2.60;;;;;;;9.32;52.17;97520.22;6791564;29;20712;-80
2021/01/25 13:16:49;;;;;;;5.03;2.70;;;;;;;8.88;53.97;97523.28;6796974;29;20203;-79
2021/01/25 13:20:13;;;;;;;3.10;2.70;;;;;;;7.76;53.99;97440.59;6793270;29;20623;-80
2021/01/25 13:23:34;;;;;;;3.00;2.80;;;;;;;8.62;53.73;97538.91;6793044;29;20215;-78
2021/01/25 13:26:55;;;;;;;2.50;2.37;;;;;;;8.24;53.19;97441.63;6791528;29;20631;-79
2021/01/25 13:30:20;;;;;;;2.30;2.20;;;;;;;7.33;54.62;97451.28;6789874;29;20223;-78
2021/01/25 13:33:41;;;;;;;2.43;2.23;;;;;;;7.62;54.38;97479.31;6803166;29;20237;-80
2021/01/25 13:37:03;;;;;;;2.20;2.10;;;;;;;7.87;55.15;97542.69;6802010;29;20676;-78
2021/01/25 13:40:26;;;;;;;2.30;2.20;;;;;;;7.11;54.81;97454.53;6796072;29;20228;-80
2021/01/25 13:43:47;;;;;;;3.03;2.73;;;;;;;7.36;56.41;97573.38;6808337;29;20211;-80
2021/01/25 13:47:09;;;;;;;2.20;2.10;;;;;;;6.97;56.74;97512.75;6804747;29;20217;-79
2021/01/25 13:50:30;;;;;;;3.43;2.63;;;;;;;6.67;57.74;97476.00;6799183;29;20213;-80
2021/01/25 13:53:52;;;;;;;2.63;2.43;;;;;;;7.69;57.83;97590.88;6799134;29;20243;-78
2021/01/25 13:57:13;;;;;;;2.33;2.23;;;;;;;8.26;55.80;97598.72;6799268;29;20319;-79
2021/01/25 14:00:34;;;;;;;2.80;2.60;;;;;;;7.87;55.43;97600.88;6797910;29;20244;-79
2021/01/25 14:03:56;;;;;;;2.70;2.50;;;;;;;7.47;56.56;97592.25;6797111;29;20226;-78
2021/01/25 14:07:17;;;;;;;2.67;2.37;;;;;;;7.89;55.59;97574.66;6797052;29;20235;-78
2021/01/25 14:10:39;;;;;;;2.70;2.50;;;;;;;7.50;56.31;97621.34;6795198;29;20237;-79
2021/01/25 14:14:00;;;;;;;3.27;3.00;;;;;;;7.23;57.18;97603.72;6795713;29;20245;-79
2021/01/25 14:17:21;;;;;;;3.30;3.00;;;;;;;7.31;57.37;97610.72;6793633;29;20219;-78
2021/01/25 14:20:43;;;;;;;3.43;3.13;;;;;;;7.20;58.74;97625.56;6789759;29;20235;-78
2021/01/25 14:24:05;;;;;;;3.33;3.07;;;;;;;7.26;58.53;97630.09;6792055;29;20271;-78
2021/01/25 14:27:27;;;;;;;3.50;3.30;;;;;;;6.81;58.48;97572.16;6790503;29;20212;-78
2021/01/25 14:30:49;;;;;;;5.27;4.00;;;;;;;6.50;58.81;97565.84;6789614;29;20253;-79
2021/01/25 14:34:11;;;;;;;4.00;3.70;;;;;;;6.33;59.62;97546.75;6791733;29;20252;-78
2021/01/25 14:37:33;;;;;;;4.70;4.30;;;;;;;6.67;59.23;97591.16;6790881;29;20205;-78
2021/01/25 14:40:54;;;;;;;6.60;4.63;;;;;;;6.44;59.74;97585.44;6790849;29;20263;-78
2021/01/25 14:44:16;;;;;;;4.87;4.37;;;;;;;6.28;59.92;97583.19;6791771;29;20210;-79
2021/01/25 14:47:38;;;;;;;4.67;4.27;;;;;;;6.90;60.11;97678.03;6791038;29;20490;-78
2021/01/25 14:50:59;;;;;;;4.30;3.90;;;;;;;6.73;59.52;97662.63;6790061;29;20278;-79
2021/01/25 14:54:22;;;;;;;5.27;4.87;;;;;;;6.34;59.75;97607.28;6790853;29;20239;-79
2021/01/25 14:57:43;;;;;;;5.30;4.80;;;;;;;6.52;60.51;97711.88;6790521;29;20208;-79
2021/01/25 15:01:05;;;;;;;5.50;4.80;;;;;;;6.14;60.25;97600.28;6789551;29;20248;-81
2021/01/25 15:04:26;;;;;;;8.50;5.60;;;;;;;6.73;61.07;97708.97;6801818;29;20207;-80
2021/01/25 15:07:48;;;;;;;6.53;5.93;;;;;;;6.67;60.87;97728.53;6795974;29;20238;-79
2021/01/25 15:11:11;;;;;;;6.90;6.27;;;;;;;5.89;62.06;97640.19;6795340;29;20219;-78
2021/01/25 15:14:32;;;;;;;6.37;5.27;;;;;;;6.55;61.63;97730.19;6799322;29;20230;-78
2021/01/25 15:17:55;;;;;;;8.33;6.23;;;;;;;6.17;61.78;97677.47;6819860;29;20256;-78
2021/01/25 15:21:16;;;;;;;6.97;6.27;;;;;;;5.96;62.52;97697.19;6817095;29;20224;-78
2021/01/25 15:24:38;;;;;;;8.43;6.97;;;;;;;6.60;62.07;97757.19;6796180;29;20586;-78
2021/01/25 15:27:59;;;;;;;10.40;8.07;;;;;;;6.03;62.26;97700.72;6792407;29;20213;-77
2021/01/25 15:31:24;;;;;;;11.50;8.20;;;;;;;5.49;62.96;97649.13;6790984;29;20248;-78
2021/01/25 15:34:46;;;;;;;11.47;8.13;;;;;;;6.03;63.74;97777.47;6792370;29;20216;-78
2021/01/25 15:38:10;;;;;;;16.57;8.27;;;;;;;6.26;63.10;97775.25;6802610;29;20206;-77
2021/01/25 15:41:32;;;;;;;11.43;8.73;;;;;;;5.72;62.72;97670.97;6794740;29;20230;-78
2021/01/25 15:44:53;;;;;;;9.93;8.67;;;;;;;6.87;61.81;97771.38;6794505;29;20420;-76
2021/01/25 15:48:15;;;;;;;12.03;7.70;;;;;;;6.50;62.54;97785.41;6798862;29;20236;-79
2021/01/25 15:51:37;;;;;;;10.73;8.13;;;;;;;6.42;62.62;97790.94;6798708;29;20312;-77
2021/01/25 15:54:58;;;;;;;11.27;8.20;;;;;;;6.44;62.69;97808.47;6799623;29;20226;-80
2021/01/25 15:58:20;;;;;;;10.10;9.03;;;;;;;6.05;63.33;97807.50;6797597;29;20213;-77
2021/01/25 16:01:41;;;;;;;9.00;7.83;;;;;;;6.00;63.06;97802.78;6792644;29;20230;-77
2021/01/25 16:05:03;;;;;;;9.57;7.83;;;;;;;5.79;63.69;97832.28;6792771;29;20235;-78
2021/01/25 16:08:25;;;;;;;9.27;8.00;;;;;;;5.99;63.37;97814.50;6785182;29;20221;-76
2021/01/25 16:11:47;;;;;;;10.00;8.87;;;;;;;5.64;63.70;97823.56;6785396;29;20245;-78
2021/01/25 16:15:10;;;;;;;10.93;9.43;;;;;;;6.08;63.78;97837.38;6788729;29;20237;-77
2021/01/25 16:18:31;;;;;;;11.20;9.43;;;;;;;6.10;63.13;97807.75;6793074;29;20249;-78
2021/01/25 16:21:52;;;;;;;11.50;9.50;;;;;;;6.38;62.37;97817.28;6805778;29;20579;-78
2021/01/25 16:25:17;;;;;;;13.87;9.73;;;;;;;6.07;62.37;97784.06;6790392;29;20213;-77
2021/01/25 16:28:38;;;;;;;12.70;10.03;;;;;;;6.38;62.35;97852.06;6789221;29;20672;-79
2021/01/25 16:32:00;;;;;;;13.03;10.00;;;;;;;6.49;62.52;97859.53;6782566;29;21392;-80
2021/01/25 16:35:23;;;;;;;14.77;10.50;;;;;;;6.64;61.86;97859.34;6784694;29;20601;-78
2021/01/25 16:38:44;;;;;;;17.17;11.17;;;;;;;6.53;62.27;97859.94;6788186;29;20586;-78
2021/01/25 16:42:09;;;;;;;16.53;12.93;;;;;;;6.72;61.34;97878.72;6786832;29;20274;-79
2021/01/25 16:45:31;;;;;;;17.40;13.63;;;;;;;5.76;61.23;97731.06;6800419;29;20220;-78
2021/01/25 16:48:52;;;;;;;19.07;12.03;;;;;;;6.52;62.44;97885.91;6790154;29;20255;-78
2021/01/25 16:52:16;;;;;;;16.10;11.83;;;;;;;6.46;62.14;97856.44;6803461;29;20237;-78
2021/01/25 16:55:37;;;;;;;13.70;12.20;;;;;;;6.76;61.66;97882.66;6788709;29;20231;-79
2021/01/25 16:58:59;;;;;;;13.80;11.70;;;;;;;6.24;62.02;97850.41;6786437;29;20236;-79
2021/01/25 17:02:21;;;;;;;15.37;12.47;;;;;;;6.33;62.62;97921.47;6785444;29;20282;-77
2021/01/25 17:05:42;;;;;;;14.60;11.70;;;;;;;5.84;63.09;97863.81;6778506;29;20220;-78
2021/01/25 17:09:04;;;;;;;13.57;11.07;;;;;;;6.30;62.73;97865.66;6787405;29;20211;-78
2021/01/25 17:12:25;;;;;;;12.90;11.00;;;;;;;6.69;62.08;97926.53;6786387;29;20238;-78
2021/01/25 17:15:48;;;;;;;17.20;11.30;;;;;;;6.41;61.62;97870.44;6787740;29;20227;-78
2021/01/25 17:19:09;;;;;;;13.80;11.63;;;;;;;6.30;62.00;97851.47;6786942;29;20720;-77
2021/01/25 17:22:30;;;;;;;12.53;10.33;;;;;;;6.64;62.16;97924.47;6764717;29;20238;-79
2021/01/25 17:25:51;;;;;;;13.83;10.50;;;;;;;5.98;61.15;97836.94;6782039;29;20210;-79
2021/01/25 17:29:13;;;;;;;18.27;12.57;;;;;;;6.62;61.60;97931.03;6783605;29;20212;-78
2021/01/25 17:32:35;;;;;;;29.27;25.40;;;;;;;6.82;61.78;97953.34;6784604;29;20246;-79
2021/01/25 17:35:56;;;;;;;18.40;13.43;;;;;;;6.51;61.66;97961.91;6777855;29;20238;-79
2021/01/25 17:39:17;;;;;;;20.17;14.60;;;;;;;6.30;61.26;97923.72;6785214;29;20210;-77
2021/01/25 17:42:39;;;;;;;17.17;13.27;;;;;;;6.31;61.69;97930.72;6785092;29;20279;-79
2021/01/25 17:46:01;;;;;;;17.40;13.13;;;;;;;6.48;62.27;97982.91;6785187;29;20210;-77
2021/01/25 17:49:23;;;;;;;19.73;15.70;;;;;;;6.43;61.14;97953.22;6771988;29;20227;-78
2021/01/25 17:52:46;;;;;;;18.77;14.53;;;;;;;6.41;61.91;97982.03;6785571;29;20233;-78
2021/01/25 17:56:07;;;;;;;21.17;17.20;;;;;;;6.37;61.77;97988.81;6787211;29;20314;-79
2021/01/25 17:59:28;;;;;;;20.83;15.10;;;;;;;6.39;62.46;98016.22;6801824;29;20206;-78
2021/01/25 18:02:50;;;;;;;18.37;14.00;;;;;;;6.56;62.10;98009.50;6785036;29;20240;-78
2021/01/25 18:06:13;;;;;;;19.90;15.03;;;;;;;5.77;61.84;97906.53;6790486;29;20209;-77
2021/01/25 18:09:34;;;;;;;21.93;15.47;;;;;;;6.57;62.00;98021.84;6779674;29;20218;-78
2021/01/25 18:12:56;;;;;;;31.87;19.93;;;;;;;6.60;61.43;98000.06;6767976;29;20233;-79
2021/01/25 18:16:17;;;;;;;20.90;16.13;;;;;;;6.55;61.30;98003.31;6787136;29;20242;-79
2021/01/25 18:19:38;;;;;;;28.40;19.77;;;;;;;6.44;61.09;98032.50;6792275;29;20210;-78
2021/01/25 18:23:00;;;;;;;23.93;16.87;;;;;;;5.98;61.53;97954.66;6799977;29;20227;-78
2021/01/25 18:26:22;;;;;;;20.83;15.73;;;;;;;5.91;61.68;97967.16;6814173;29;20209;-81
2021/01/25 18:29:43;;;;;;;20.67;15.67;;;;;;;6.39;62.22;98030.44;6814060;29;20207;-78
2021/01/25 18:33:06;;;;;;;19.10;13.33;;;;;;;6.32;62.24;98050.97;6797535;29;20313;-78
2021/01/25 18:36:28;;;;;;;15.33;13.20;;;;;;;6.19;62.80;98064.25;6786377;29;20222;-78
2021/01/25 18:39:50;;;;;;;17.77;12.70;;;;;;;6.06;62.06;97991.94;6791701;29;20206;-79
2021/01/25 18:43:11;;;;;;;11.97;10.43;;;;;;;6.28;62.29;98071.13;6790931;29;20282;-78
2021/01/25 18:46:33;;;;;;;12.97;10.27;;;;;;;6.58;61.32;98077.06;6792971;29;20218;-81
2021/01/25 18:49:54;;;;;;;13.33;10.00;;;;;;;6.63;61.58;98091.53;6791539;29;20195;-78
2021/01/25 18:53:15;;;;;;;9.77;8.33;;;;;;;6.22;61.94;98092.50;6792064;29;20715;-78
2021/01/25 18:56:37;;;;;;;45.07;12.10;;;;;;;5.78;62.63;98049.91;6792293;29;20269;-78
2021/01/25 18:59:58;;;;;;;8.70;7.07;;;;;;;6.01;62.63;98090.69;6791418;29;20210;-79
2021/01/25 19:03:20;;;;;;;9.53;7.90;;;;;;;5.89;62.42;98056.66;6792250;29;20218;-78
2021/01/25 19:06:41;;;;;;;9.50;7.77;;;;;;;6.27;62.04;98103.44;6792556;29;20214;-79
2021/01/25 19:10:04;;;;;;;10.73;8.50;;;;;;;6.38;61.58;98117.09;6791803;29;20214;-78
2021/01/25 19:13:26;;;;;;;16.60;10.70;;;;;;;6.42;61.54;98129.09;6791780;29;20233;-78
2021/01/25 19:16:47;;;;;;;22.13;13.33;;;;;;;6.57;61.36;98127.13;6789250;29;20229;-77
2021/01/25 19:20:11;;;;;;;16.50;12.60;;;;;;;6.74;60.32;98133.84;6801094;29;20639;-79
2021/01/25 19:23:32;;;;;;;15.37;11.40;;;;;;;6.61;60.00;98128.38;6789428;29;20305;-78
2021/01/25 19:26:53;;;;;;;16.67;11.67;;;;;;;6.50;60.31;98115.56;6791978;29;20250;-78
2021/01/25 19:30:18;;;;;;;16.20;11.60;;;;;;;5.80;61.19;98071.16;6795181;29;20205;-80
2021/01/25 19:33:40;;;;;;;17.30;12.30;;;;;;;6.03;60.86;98077.97;6793066;29;20201;-79
2021/01/25 19:37:01;;;;;;;18.60;11.93;;;;;;;6.66;60.58;98155.41;6792082;29;20636;-79
2021/01/25 19:40:24;;;;;;;16.90;12.17;;;;;;;6.38;60.91;98148.41;6791022;29;20209;-78
2021/01/25 19:43:46;;;;;;;14.80;11.23;;;;;;;6.49;60.51;98166.63;6793600;29;20236;-78
2021/01/25 19:47:08;;;;;;;12.03;9.13;;;;;;;5.76;60.53;98049.28;6793826;29;20218;-78
2021/01/25 19:50:29;;;;;;;19.93;13.53;;;;;;;6.32;60.31;98144.66;6792043;29;20338;-78
2021/01/25 19:53:51;;;;;;;17.87;12.53;;;;;;;6.43;60.81;98186.16;6776250;29;20240;-79
2021/01/25 19:57:12;;;;;;;15.53;12.23;;;;;;;5.65;63.26;98204.09;6791240;29;20199;-78
2021/01/25 20:00:34;;;;;;;12.67;9.33;;;;;;;5.88;62.71;98210.09;6790960;29;20249;-79
2021/01/25 20:03:57;;;;;;;11.03;8.87;;;;;;;5.92;62.56;98196.19;6794161;29;20208;-78
2021/01/25 20:07:18;;;;;;;13.63;10.00;;;;;;;6.09;62.42;98202.94;6793595;29;20202;-78
2021/01/25 20:10:40;;;;;;;12.13;10.07;;;;;;;6.37;61.50;98195.75;6792361;29;20240;-78
2021/01/25 20:14:01;;;;;;;12.67;10.10;;;;;;;6.93;60.04;98215.34;6794592;29;20239;-78
2021/01/25 20:17:22;;;;;;;15.80;12.10;;;;;;;6.75;60.26;98223.88;6792718;29;20217;-79
2021/01/25 20:20:47;;;;;;;15.13;11.77;;;;;;;6.66;60.27;98233.06;6793108;29;20272;-78